x

North Channel East (45154) Weather Station

10:00am - Fri 22nd Aug 2014 All times are CDT. -5 hours from GMT.

  • Peak Period 3s
  • Wind
    4mph, 7mph gusts
  • Sea Temp 65°f
  • Air Temp 66°f
  • Sea Pressure 1016.9mb
  • North Channel East
  • North Channel East

More Historic Weather Station data

Upgrade to MSW Pro to gain access to the past 30 days of data for over 8000 Wavebouys and Weather Stations around the globe.

Join Pro

Comparision Forecast

View Surf forecast
   
Fri 08/22 10:00am  -  3s 4 7 mph 1016.9mb 65f 66f
9:00am  -  3s 7 9 mph 1016.7mb 65f 65f
8:00am  -  2s 4 7 mph 1016.4mb 65f 65f
7:00am  -  3s 2
mph
1016.3mb 64f 65f
6:00am  -  2s 2 4 mph 1015.9mb 64f 65f
5:00am  -  2s 4
mph
1015.2mb 64f 64f
4:00am  -  2s 2 4 mph 1015mb 64f 64f
3:00am  -  2s 2 4 mph 1015.6mb 64f 64f
2:00am  -  2s 4
mph
1015.7mb 64f 65f
1:00am 0.3ft 2s 2
mph
1015.4mb 64f 65f
12:00am 0.3ft 2s 4 7 mph 1015.6mb 64f 64f
Thu 08/21 11:00pm 0.3ft 2s 2
mph
1015.6mb 65f 64f
10:00pm 0.3ft 2s 2
mph
1015.6mb 65f 65f
9:00pm 0.3ft 2s 4
mph
1015.5mb 65f 65f
8:00pm 0.3ft 2s 4 7 mph 1015.2mb 65f 65f
7:00pm 0.3ft 2s 4 7 mph 1014.9mb 65f 65f
6:00pm 0.3ft 2s 9
mph
1015mb 65f 66f
5:00pm 0.3ft 2s 2 4 mph 1014.9mb 65f 67f
4:00pm 0.3ft 2s 4 7 mph 1014.6mb 65f 67f
3:00pm 0.3ft 2s 4
mph
1014.6mb 65f 66f
2:00pm 0.7ft 3s 4
mph
1015mb 65f 65f
1:00pm 0.3ft 2s 4
mph
1015mb 64f 65f
12:00pm 0.3ft 2s 7 9 mph 1015.1mb 64f 63f
11:00am  -  2s 9
mph
1014.9mb 64f 63f
10:00am 0.3ft 3s 4 7 mph 1015.3mb 64f 64f
9:00am  -  3s 4 7 mph 1015.2mb 64f 64f
8:00am 0.3ft 2s 4
mph
1014.9mb 63f 62f
7:00am 0.3ft 2s 7 9 mph 1014.7mb 63f 62f
5:00am  -  2s 7 9 mph 1014.4mb 63f 62f
4:00am  -  2s 2 4 mph 1013.7mb 63f 63f
3:00am  -  2s 4
mph
1013.7mb 63f 63f
2:00am  -  2s 2
mph
1013.5mb 63f 63f
1:00am 0.3ft 2s  -  2 mph 1013.5mb 63f 63f
12:00am 0.3ft 2s 2
mph
1013.7mb 63f 63f
Wed 08/20 11:00pm 0.3ft 2s 4 7 mph 1013.6mb 63f 64f
10:00pm 0.3ft 2s 4 7 mph 1013.5mb 63f 63f
9:00pm 0.7ft 2s 2 4 mph 1012.8mb 63f 63f
8:00pm 1ft 2s 9 11 mph 1012.9mb 63f 63f
7:00pm 1ft 2s 11 13 mph 1012.3mb 63f 63f
6:00pm 1ft 3s 11 13 mph 1012.4mb 63f 63f
5:00pm 1.3ft 3s 11 13 mph 1012mb 63f 63f
4:00pm 1.3ft 3s 13 18 mph 1012mb 63f 63f
3:00pm 1.3ft 3s 13 16 mph 1011.6mb 63f 62f
2:00pm 1.3ft 3s 16 18 mph 1011.1mb 63f 62f
1:00pm 1ft 3s 13 16 mph 1011.1mb 63f 63f
12:00pm 1ft 3s 11 13 mph 1010.9mb 63f 63f
11:00am 0.7ft 2s 11 13 mph 1010.6mb 63f 64f
10:00am 0.3ft 2s 4
mph
1010.2mb 63f 63f
9:00am 0.3ft 2s 9 11 mph 1009.7mb 63f 63f
8:00am 0.7ft 2s 9 11 mph 1009.7mb 63f 62f
7:00am 0.7ft 2s 9 11 mph 1009.1mb 63f 62f
6:00am 1ft 2s 9 11 mph 1008.8mb 63f 62f
5:00am 1.3ft 3s 9 13 mph 1008.2mb 63f 62f
4:00am 1.3ft 3s 13 16 mph 1007.7mb 63f 62f
3:00am 1.6ft 3s 13 16 mph 1007.4mb 63f 62f
2:00am 1.6ft 3s 13 18 mph 1007.4mb 63f 62f
1:00am 1.6ft 3s 13 18 mph 1007.5mb 63f 62f
12:00am 2ft 3s 16 18 mph 1007.4mb 63f 63f
Tue 08/19 11:00pm 2ft 3s 18 22 mph 1007.6mb 63f 62f
10:00pm 2ft 4s 16 20 mph 1007.5mb 63f 63f
9:00pm 2ft 4s 18 20 mph 1007.6mb 63f 62f
8:00pm 2.5ft 4s 18 22 mph 1007.9mb 63f 63f
7:00pm 2.5ft 3s 18 22 mph 1007.8mb 63f 62f
6:00pm 2.5ft 3s 18 22 mph 1007.8mb 63f 62f
5:00pm 2ft 3s 22 27 mph 1007.7mb 63f 62f
4:00pm 1.6ft 3s 18 20 mph 1008mb 63f 61f
3:00pm 1.6ft 3s 16 18 mph 1008.2mb 63f 62f
2:00pm 2ft 3s 13 18 mph 1008.3mb 63f 62f
1:00pm 2ft 3s 16 18 mph 1008.3mb 63f 62f
12:00pm 2ft 3s 16 20 mph 1008.2mb 63f 62f
11:00am 1.6ft 3s 18 20 mph 1008.5mb 63f 62f
10:00am 1.6ft 2s 18 22 mph 1008.8mb 63f 62f
9:00am 1ft 3s 16 20 mph 1008.8mb 63f 62f
8:00am 1.3ft 3s 13 16 mph 1008.7mb 63f 62f
7:00am 1ft 3s 13 16 mph 1008.8mb 63f 62f
6:00am 1ft 2s 13 16 mph 1009mb 64f 62f
5:00am 0.7ft 2s 11 13 mph 1009.4mb 64f 62f
4:00am 0.7ft 2s 11 13 mph 1009.3mb 64f 60f
3:00am 1ft 2s 9 11 mph 1009.7mb 64f 61f
1:00am 0.7ft 2s 11 13 mph 1010mb 64f 62f
12:00am 0.3ft 2s 9 11 mph 1011mb 64f 62f
Mon 08/18 11:00pm 0.3ft 2s 7 9 mph 1011.2mb 64f 62f
10:00pm 0.3ft 2s 7 9 mph 1011.4mb 64f 62f
9:00pm 0.3ft 2s 9
mph
1011.9mb 64f 62f
8:00pm 0.3ft 2s 9
mph
1011.9mb 64f 62f
7:00pm 0.3ft 2s 7
mph
1011.8mb 64f 62f
6:00pm 0.3ft 2s 9
mph
1012.4mb 65f 63f
5:00pm 0.7ft 2s 7
mph
1012.9mb 65f 63f